createdAt,value
2018-10-19T00:01:32.950Z,10.20
2018-10-19T00:04:38.345Z,10.20
2018-10-19T00:07:43.695Z,10.20
2018-10-19T00:10:49.148Z,10.20
2018-10-19T00:13:54.837Z,10.10
2018-10-19T00:17:00.227Z,10.10
2018-10-19T00:20:07.098Z,10.10
2018-10-19T00:23:12.515Z,10.00
2018-10-19T00:26:18.417Z,10.00
2018-10-19T00:29:23.766Z,10.00
2018-10-19T00:32:29.114Z,9.90
2018-10-19T00:35:34.521Z,9.90
2018-10-19T00:38:39.983Z,9.80
2018-10-19T00:41:45.317Z,9.80
2018-10-19T00:44:50.658Z,9.80
2018-10-19T00:47:56.351Z,9.80
2018-10-19T00:51:01.748Z,9.80
2018-10-19T00:54:07.681Z,9.80
2018-10-19T00:57:13.090Z,9.80
2018-10-19T01:00:18.685Z,9.80
2018-10-19T01:03:24.100Z,9.80
2018-10-19T01:06:29.554Z,9.80
2018-10-19T01:09:34.903Z,9.70
2018-10-19T01:12:40.779Z,9.70
2018-10-19T01:15:46.130Z,9.70
2018-10-19T01:18:51.654Z,9.60
2018-10-19T01:21:57.149Z,9.60
2018-10-19T01:25:02.475Z,9.60
2018-10-19T01:28:08.005Z,9.60
2018-10-19T01:31:13.393Z,9.50
2018-10-19T01:34:18.783Z,9.50
2018-10-19T01:37:24.121Z,9.40
2018-10-19T01:40:29.517Z,9.40
2018-10-19T01:43:34.921Z,9.40
2018-10-19T01:46:44.345Z,9.30
2018-10-19T01:49:49.790Z,9.30
2018-10-19T01:52:55.203Z,9.20
2018-10-19T01:56:00.771Z,9.10
2018-10-19T01:59:06.720Z,9.10
2018-10-19T02:02:12.266Z,9.10
2018-10-19T02:05:18.530Z,9.00
2018-10-19T02:08:23.911Z,8.90
2018-10-19T02:11:29.269Z,9.00
2018-10-19T02:14:34.666Z,9.00
2018-10-19T02:17:40.014Z,9.00
2018-10-19T02:20:45.562Z,9.00
2018-10-19T02:23:51.294Z,9.00
2018-10-19T02:26:57.041Z,9.00
2018-10-19T02:30:02.679Z,9.00
2018-10-19T02:33:08.455Z,9.00
2018-10-19T02:36:14.126Z,8.90
2018-10-19T02:39:19.673Z,8.90
2018-10-19T02:42:25.197Z,8.90
2018-10-19T02:45:34.202Z,8.90
2018-10-19T02:48:39.632Z,8.90
2018-10-19T02:51:44.978Z,8.70
2018-10-19T02:54:50.486Z,8.70
2018-10-19T02:57:55.815Z,8.80
2018-10-19T03:01:01.565Z,8.70
2018-10-19T03:04:06.934Z,8.80
2018-10-19T03:07:12.298Z,8.80
2018-10-19T03:10:18.346Z,8.80
2018-10-19T03:13:23.831Z,8.80
2018-10-19T03:16:29.182Z,8.70
2018-10-19T03:19:34.726Z,8.70
2018-10-19T03:22:40.072Z,8.70
2018-10-19T03:25:45.409Z,8.60
2018-10-19T03:28:50.847Z,8.60
2018-10-19T03:31:56.201Z,8.60
2018-10-19T03:35:01.590Z,8.60
2018-10-19T03:38:07.497Z,8.40
2018-10-19T03:41:12.954Z,8.50
2018-10-19T03:44:18.498Z,8.50
2018-10-19T03:47:23.881Z,8.50
2018-10-19T03:50:29.762Z,8.50
2018-10-19T03:53:35.655Z,8.50
2018-10-19T03:56:41.047Z,8.40
2018-10-19T03:59:46.410Z,8.30
2018-10-19T04:02:51.817Z,8.40
2018-10-19T04:05:57.373Z,8.30
2018-10-19T04:09:03.328Z,8.40
2018-10-19T04:12:08.917Z,8.50
2018-10-19T04:15:14.364Z,8.60
2018-10-19T04:18:19.925Z,8.60
2018-10-19T04:21:25.386Z,8.60
2018-10-19T04:24:30.762Z,8.70
2018-10-19T04:27:36.845Z,8.70
2018-10-19T04:30:42.457Z,8.80
2018-10-19T04:33:47.835Z,8.70
2018-10-19T04:37:04.973Z,8.80
2018-10-19T04:40:21.711Z,8.80
2018-10-19T04:43:27.129Z,8.70
2018-10-19T04:46:32.467Z,8.70
2018-10-19T04:49:37.923Z,8.70
2018-10-19T04:52:43.330Z,8.80
2018-10-19T04:55:48.790Z,8.80
2018-10-19T04:58:54.281Z,8.80
2018-10-19T05:02:00.707Z,8.90
2018-10-19T05:05:07.322Z,8.90
2018-10-19T05:08:12.847Z,9.00
2018-10-19T05:11:18.563Z,8.80
2018-10-19T05:14:23.992Z,8.80
2018-10-19T05:17:30.042Z,8.70
2018-10-19T05:20:35.507Z,8.70
2018-10-19T05:23:40.958Z,8.70
2018-10-19T05:26:46.371Z,8.60
2018-10-19T05:29:52.861Z,8.60
2018-10-19T05:32:58.219Z,8.60
2018-10-19T05:36:04.390Z,8.70
2018-10-19T05:39:10.405Z,8.70
2018-10-19T05:42:15.807Z,8.70
2018-10-19T05:45:21.206Z,8.70
2018-10-19T05:48:26.561Z,8.80
2018-10-19T05:51:31.939Z,8.80
2018-10-19T05:54:37.372Z,8.70
2018-10-19T05:57:42.837Z,8.70
2018-10-19T06:00:48.326Z,8.70
2018-10-19T06:03:53.782Z,8.70
2018-10-19T06:06:59.185Z,8.80
2018-10-19T06:10:05.090Z,8.80
2018-10-19T06:13:10.498Z,8.90
2018-10-19T06:16:15.874Z,8.80
2018-10-19T06:19:21.378Z,8.80
2018-10-19T06:22:26.819Z,8.80
2018-10-19T06:25:32.185Z,8.70
2018-10-19T06:28:37.669Z,8.70
2018-10-19T06:31:43.052Z,8.70
2018-10-19T06:34:48.414Z,8.70
2018-10-19T06:37:53.929Z,8.70
2018-10-19T06:40:59.559Z,8.70
2018-10-19T06:44:05.618Z,8.70
2018-10-19T06:47:22.692Z,8.70
2018-10-19T06:50:28.274Z,8.70
2018-10-19T06:53:34.125Z,8.70
2018-10-19T06:56:39.494Z,8.70
2018-10-19T06:59:44.933Z,8.70
2018-10-19T07:02:50.310Z,8.70
2018-10-19T07:05:55.693Z,8.70
2018-10-19T07:09:01.210Z,8.70
2018-10-19T07:12:07.783Z,8.80
2018-10-19T07:15:13.323Z,8.80
2018-10-19T07:18:18.798Z,8.90
2018-10-19T07:21:24.263Z,9.00
2018-10-19T07:24:29.930Z,9.00
2018-10-19T07:27:35.480Z,9.00
2018-10-19T07:30:40.890Z,9.20
2018-10-19T07:33:46.973Z,9.30
2018-10-19T07:36:52.337Z,9.40
2018-10-19T07:39:57.714Z,9.40
2018-10-19T07:43:03.099Z,9.50
2018-10-19T07:46:08.445Z,9.50
2018-10-19T07:49:14.155Z,9.60
2018-10-19T07:52:19.514Z,9.60
2018-10-19T07:55:24.941Z,9.80
2018-10-19T07:58:30.389Z,9.80
2018-10-19T08:01:35.749Z,9.80
2018-10-19T08:04:41.142Z,9.80
2018-10-19T08:07:46.970Z,9.90
2018-10-19T08:10:52.805Z,9.90
2018-10-19T08:13:58.881Z,10.10
2018-10-19T08:17:04.362Z,10.20
2018-10-19T08:20:10.734Z,10.40
2018-10-19T08:23:16.397Z,10.60
2018-10-19T08:26:24.165Z,10.70
2018-10-19T08:29:29.574Z,10.80
2018-10-19T08:32:34.911Z,11.00
2018-10-19T08:35:40.282Z,11.00
2018-10-19T08:38:45.651Z,11.20
2018-10-19T08:41:51.060Z,11.30
2018-10-19T08:44:56.638Z,11.40
2018-10-19T08:48:02.199Z,11.50
2018-10-19T08:51:07.593Z,11.50
2018-10-19T08:54:14.166Z,11.60
2018-10-19T08:57:19.609Z,11.70
2018-10-19T09:00:25.118Z,11.80
2018-10-19T09:03:30.520Z,11.90
2018-10-19T09:06:36.259Z,12.00
2018-10-19T09:09:42.343Z,12.10
2018-10-19T09:12:47.904Z,12.10
2018-10-19T09:15:54.906Z,12.00
2018-10-19T09:19:00.390Z,12.10
2018-10-19T09:22:06.486Z,12.20
2018-10-19T09:25:11.899Z,12.40
2018-10-19T09:28:17.269Z,12.60
2018-10-19T09:31:22.648Z,12.60
2018-10-19T09:34:27.999Z,12.70
2018-10-19T09:37:33.362Z,12.80
2018-10-19T09:40:38.748Z,12.90
2018-10-19T09:43:44.131Z,12.90
2018-10-19T09:46:49.562Z,13.00
2018-10-19T09:49:54.898Z,13.20
2018-10-19T09:53:00.284Z,13.40
2018-10-19T09:56:06.320Z,13.50
2018-10-19T09:59:12.023Z,13.50
2018-10-19T10:02:17.502Z,13.60
2018-10-19T10:05:22.918Z,13.50
2018-10-19T10:08:28.342Z,13.50
2018-10-19T10:11:35.834Z,13.60
2018-10-19T10:14:41.279Z,13.60
2018-10-19T10:17:46.822Z,13.60
2018-10-19T10:20:52.193Z,13.60
2018-10-19T10:23:57.839Z,13.60
2018-10-19T10:27:04.029Z,13.60
2018-10-19T10:30:10.922Z,13.60
2018-10-19T10:33:16.808Z,13.70
2018-10-19T10:36:22.778Z,13.80
2018-10-19T10:39:33.659Z,14.00
2018-10-19T10:42:40.732Z,14.00
2018-10-19T10:45:46.274Z,14.10
2018-10-19T10:48:51.878Z,14.20
2018-10-19T10:51:57.256Z,14.20
2018-10-19T10:55:03.637Z,14.30
2018-10-19T10:58:09.247Z,14.30
2018-10-19T11:01:16.152Z,14.30
2018-10-19T11:04:21.702Z,14.60
2018-10-19T11:07:27.852Z,15.10
2018-10-19T11:10:33.461Z,15.40
2018-10-19T11:13:40.190Z,15.30
2018-10-19T11:16:45.565Z,15.40
2018-10-19T11:19:50.933Z,15.20
2018-10-19T11:22:56.530Z,14.90
2018-10-19T11:26:01.902Z,14.70
2018-10-19T11:29:07.582Z,14.50
2018-10-19T11:32:12.949Z,14.60
2018-10-19T11:35:19.031Z,14.60
2018-10-19T11:38:24.602Z,14.50
2018-10-19T11:41:30.030Z,14.40
2018-10-19T11:44:35.390Z,14.30
2018-10-19T11:47:40.769Z,14.60
2018-10-19T11:50:46.177Z,15.50
2018-10-19T11:53:51.572Z,15.90
2018-10-19T11:56:57.005Z,16.40
2018-10-19T12:00:02.552Z,16.90
2018-10-19T12:03:08.022Z,17.90
2018-10-19T12:06:13.519Z,19.00
2018-10-19T12:09:18.889Z,20.00
2018-10-19T12:12:24.314Z,20.90
2018-10-19T12:15:29.683Z,20.50
2018-10-19T12:18:35.117Z,21.30
2018-10-19T12:21:40.557Z,22.20
2018-10-19T12:24:45.934Z,22.20
2018-10-19T12:27:51.353Z,21.90
2018-10-19T12:30:56.832Z,21.70
2018-10-19T12:34:02.454Z,21.30
2018-10-19T12:37:11.029Z,22.70
2018-10-19T12:40:16.606Z,22.70
2018-10-19T12:43:22.244Z,23.30
2018-10-19T12:46:45.869Z,23.00
2018-10-19T12:49:51.308Z,22.90
2018-10-19T12:52:56.690Z,22.70
2018-10-19T12:56:02.201Z,22.50
2018-10-19T12:59:08.273Z,22.80
2018-10-19T13:02:14.745Z,22.50
2018-10-19T13:05:20.130Z,21.90
2018-10-19T13:08:25.633Z,21.20
2018-10-19T13:11:31.038Z,20.60
2018-10-19T13:14:36.929Z,20.50
2018-10-19T13:17:42.330Z,20.90
2018-10-19T13:20:47.728Z,21.40
2018-10-19T13:23:53.156Z,22.20
2018-10-19T13:27:11.220Z,22.80
2018-10-19T13:30:16.963Z,23.10
2018-10-19T13:33:22.389Z,22.50
2018-10-19T13:36:27.780Z,21.90
2018-10-19T13:39:33.161Z,22.70
2018-10-19T13:42:38.514Z,23.60
2018-10-19T13:45:43.860Z,23.30
2018-10-19T13:48:49.409Z,23.50
2018-10-19T13:51:54.822Z,23.20
2018-10-19T13:55:00.833Z,22.40
2018-10-19T13:58:06.458Z,21.40
2018-10-19T14:01:16.073Z,20.40
2018-10-19T14:04:21.485Z,19.50
2018-10-19T14:07:26.849Z,19.40
2018-10-19T14:10:32.345Z,19.30
2018-10-19T14:13:37.754Z,18.80
2018-10-19T14:16:43.146Z,18.70
2018-10-19T14:19:49.154Z,18.60
2018-10-19T14:22:54.567Z,18.50
2018-10-19T14:25:59.956Z,18.30
2018-10-19T14:29:05.781Z,18.20
2018-10-19T14:32:11.361Z,18.00
2018-10-19T14:35:16.829Z,17.40
2018-10-19T14:38:22.345Z,17.40
2018-10-19T14:41:27.728Z,17.00
2018-10-19T14:44:34.559Z,17.00
2018-10-19T14:47:41.274Z,16.90
2018-10-19T14:50:47.461Z,16.80
2018-10-19T14:53:52.887Z,16.80
2018-10-19T14:56:58.318Z,16.80
2018-10-19T15:00:04.558Z,16.70
2018-10-19T15:03:09.977Z,16.70
2018-10-19T15:06:15.531Z,16.60
2018-10-19T15:09:21.035Z,16.60
2018-10-19T15:12:26.551Z,16.20
2018-10-19T15:15:32.478Z,16.00
2018-10-19T15:18:37.932Z,16.00
2018-10-19T15:21:43.457Z,16.10
2018-10-19T15:24:48.858Z,16.00
2018-10-19T15:27:54.745Z,16.00
2018-10-19T15:31:00.193Z,15.90
2018-10-19T15:34:06.102Z,15.90
2018-10-19T15:37:11.501Z,15.80
2018-10-19T15:40:16.921Z,15.80
2018-10-19T15:43:22.282Z,15.80
2018-10-19T15:46:27.689Z,15.80
2018-10-19T15:49:33.449Z,15.80
2018-10-19T15:52:38.825Z,15.70
2018-10-19T15:55:44.218Z,15.50
2018-10-19T15:58:49.771Z,15.30
2018-10-19T16:01:55.970Z,15.30
2018-10-19T16:05:01.357Z,15.10
2018-10-19T16:08:07.925Z,14.90
2018-10-19T16:11:13.490Z,14.90
2018-10-19T16:14:19.018Z,14.90
2018-10-19T16:17:24.452Z,14.70
2018-10-19T16:20:30.080Z,14.70
2018-10-19T16:23:35.820Z,14.60
2018-10-19T16:26:41.210Z,14.30
2018-10-19T16:29:46.593Z,14.30
2018-10-19T16:32:51.977Z,14.30
2018-10-19T16:35:57.834Z,14.20
2018-10-19T16:39:03.321Z,14.10
2018-10-19T16:42:09.612Z,14.10
2018-10-19T16:45:15.335Z,14.10
2018-10-19T16:48:20.882Z,14.10
2018-10-19T16:51:31.418Z,14.10
2018-10-19T16:54:36.802Z,14.10
2018-10-19T16:57:42.313Z,14.10
2018-10-19T17:00:47.733Z,13.90
2018-10-19T17:03:53.320Z,13.90
2018-10-19T17:06:59.081Z,13.80
2018-10-19T17:10:04.774Z,13.80
2018-10-19T17:13:10.158Z,13.80
2018-10-19T17:16:15.573Z,13.70
2018-10-19T17:19:21.004Z,13.40
2018-10-19T17:22:26.558Z,13.40
2018-10-19T17:25:32.042Z,13.40
2018-10-19T17:28:37.566Z,13.40
2018-10-19T17:31:43.011Z,13.40
2018-10-19T17:34:48.375Z,13.30
2018-10-19T17:37:53.777Z,13.20
2018-10-19T17:40:59.185Z,13.20
2018-10-19T17:44:04.558Z,13.20
2018-10-19T17:47:10.789Z,13.10
2018-10-19T17:50:16.421Z,13.00
2018-10-19T17:53:21.837Z,12.90
2018-10-19T17:56:27.266Z,12.80
2018-10-19T17:59:32.658Z,12.80
2018-10-19T18:02:38.064Z,12.80
2018-10-19T18:05:55.137Z,12.70
2018-10-19T18:09:00.829Z,12.70
2018-10-19T18:12:06.695Z,12.70
2018-10-19T18:15:12.262Z,12.60
2018-10-19T18:18:17.690Z,12.30
2018-10-19T18:21:23.101Z,12.20
2018-10-19T18:24:28.686Z,12.30
2018-10-19T18:27:34.226Z,12.30
2018-10-19T18:30:39.705Z,12.20
2018-10-19T18:33:45.591Z,12.20
2018-10-19T18:36:51.111Z,12.20
2018-10-19T18:39:56.562Z,12.10
2018-10-19T18:43:01.949Z,12.00
2018-10-19T18:46:07.655Z,11.80
2018-10-19T18:49:13.212Z,11.80
2018-10-19T18:52:18.674Z,11.80
2018-10-19T18:55:24.058Z,11.80
2018-10-19T18:58:29.574Z,11.80
2018-10-19T19:01:34.986Z,11.80
2018-10-19T19:04:40.661Z,11.80
2018-10-19T19:07:46.073Z,11.70
2018-10-19T19:10:51.462Z,11.60
2018-10-19T19:13:56.969Z,11.40
2018-10-19T19:17:02.557Z,11.40
2018-10-19T19:20:16.537Z,11.40
2018-10-19T19:23:22.142Z,11.40
2018-10-19T19:26:28.545Z,11.40
2018-10-19T19:29:34.002Z,11.50
2018-10-19T19:32:43.474Z,11.50
2018-10-19T19:35:48.837Z,11.40
2018-10-19T19:38:54.301Z,11.50
2018-10-19T19:42:05.059Z,11.40
2018-10-19T19:45:10.721Z,11.40
2018-10-19T19:48:21.214Z,11.40
2018-10-19T19:51:26.602Z,11.30
2018-10-19T19:54:31.966Z,11.30
2018-10-19T19:57:37.309Z,11.30
2018-10-19T20:00:43.129Z,11.30
2018-10-19T20:03:48.489Z,11.20
2018-10-19T20:06:53.814Z,10.90
2018-10-19T20:09:59.233Z,10.70
2018-10-19T20:13:04.782Z,10.70
2018-10-19T20:16:10.108Z,10.80
2018-10-19T20:19:15.599Z,10.80
2018-10-19T20:22:21.646Z,10.90
2018-10-19T20:25:27.037Z,10.90
2018-10-19T20:28:32.434Z,11.00
2018-10-19T20:31:37.770Z,10.90
2018-10-19T20:34:43.134Z,10.90
2018-10-19T20:37:48.492Z,10.90
2018-10-19T20:40:54.015Z,10.90
2018-10-19T20:43:59.672Z,10.80
2018-10-19T20:47:05.563Z,10.80
2018-10-19T20:50:11.323Z,10.80
2018-10-19T20:53:16.907Z,10.70
2018-10-19T20:56:22.470Z,10.70
2018-10-19T20:59:27.873Z,10.70
2018-10-19T21:02:33.267Z,10.70
2018-10-19T21:05:38.842Z,10.60
2018-10-19T21:08:44.329Z,10.60
2018-10-19T21:11:49.673Z,10.70
2018-10-19T21:14:55.650Z,10.70
2018-10-19T21:18:01.017Z,10.70
2018-10-19T21:21:06.934Z,10.70
2018-10-19T21:24:13.181Z,10.70
2018-10-19T21:27:18.593Z,10.70
2018-10-19T21:30:24.018Z,10.70
2018-10-19T21:33:29.414Z,10.60
2018-10-19T21:36:34.787Z,10.50
2018-10-19T21:39:40.266Z,10.40
2018-10-19T21:42:45.633Z,10.50
2018-10-19T21:45:51.346Z,10.50
2018-10-19T21:48:56.797Z,10.50
2018-10-19T21:52:02.266Z,10.60
2018-10-19T21:55:09.686Z,10.60
2018-10-19T21:58:15.075Z,10.60
2018-10-19T22:01:20.483Z,10.40
2018-10-19T22:04:25.980Z,10.40
2018-10-19T22:07:31.475Z,10.40
2018-10-19T22:10:37.106Z,10.40
2018-10-19T22:13:42.937Z,10.30
2018-10-19T22:16:48.349Z,10.30
2018-10-19T22:19:53.860Z,10.30
2018-10-19T22:22:59.293Z,10.30
2018-10-19T22:26:04.899Z,10.30
2018-10-19T22:29:10.588Z,10.30
2018-10-19T22:32:16.094Z,10.30
2018-10-19T22:35:21.495Z,10.30
2018-10-19T22:38:26.893Z,10.20
2018-10-19T22:41:32.254Z,10.20
2018-10-19T22:44:37.593Z,10.20
2018-10-19T22:47:43.033Z,10.20
2018-10-19T22:50:48.422Z,10.10
2018-10-19T22:53:53.766Z,10.10
2018-10-19T22:56:59.141Z,10.10
2018-10-19T23:00:04.594Z,9.90
2018-10-19T23:03:09.931Z,9.80
2018-10-19T23:06:15.275Z,9.70
2018-10-19T23:09:20.658Z,9.70
2018-10-19T23:12:26.024Z,9.70
2018-10-19T23:15:31.383Z,9.70
2018-10-19T23:18:36.802Z,9.70
2018-10-19T23:21:42.267Z,9.60
2018-10-19T23:24:47.741Z,9.70
2018-10-19T23:27:53.085Z,9.70
2018-10-19T23:30:58.812Z,9.70
2018-10-19T23:34:04.402Z,9.70
2018-10-19T23:37:09.865Z,9.70
2018-10-19T23:40:15.461Z,9.70
2018-10-19T23:43:20.876Z,9.70
2018-10-19T23:46:26.258Z,9.70
2018-10-19T23:49:31.722Z,9.70
2018-10-19T23:52:37.103Z,9.80
2018-10-19T23:55:42.542Z,9.80
2018-10-19T23:58:48.150Z,9.80
